createdAt,value
2018-09-09T00:01:56.809Z,79.70
2018-09-09T00:04:24.533Z,78.50
2018-09-09T00:06:52.304Z,83.50
2018-09-09T00:09:25.896Z,84.50
2018-09-09T00:11:53.685Z,86.00
2018-09-09T00:14:21.560Z,86.30
2018-09-09T00:16:49.286Z,86.30
2018-09-09T00:19:17.045Z,85.40
2018-09-09T00:21:44.802Z,84.60
2018-09-09T00:24:12.607Z,84.40
2018-09-09T00:26:40.507Z,83.10
2018-09-09T00:29:08.246Z,84.00
2018-09-09T00:31:36.015Z,83.00
2018-09-09T00:34:03.778Z,82.10
2018-09-09T00:36:31.555Z,80.80
2018-09-09T00:38:59.397Z,82.20
2018-09-09T00:41:27.117Z,80.50
2018-09-09T00:43:55.192Z,80.00
2018-09-09T00:46:22.982Z,79.40
2018-09-09T00:49:53.999Z,78.40
2018-09-09T00:52:27.528Z,77.30
2018-09-09T00:54:55.265Z,77.10
2018-09-09T00:57:23.104Z,79.30
2018-09-09T00:59:50.820Z,80.00
2018-09-09T01:02:18.572Z,80.30
2018-09-09T01:04:46.296Z,83.00
2018-09-09T01:07:14.056Z,81.30
2018-09-09T01:09:41.817Z,82.50
2018-09-09T01:12:09.564Z,83.70
2018-09-09T01:14:37.314Z,83.50
2018-09-09T01:17:05.069Z,82.50
2018-09-09T01:19:32.900Z,81.20
2018-09-09T01:22:00.623Z,82.10
2018-09-09T01:24:28.346Z,80.70
2018-09-09T01:26:56.080Z,81.90
2018-09-09T01:29:23.816Z,80.80
2018-09-09T01:31:51.552Z,80.30
2018-09-09T01:34:19.304Z,80.60
2018-09-09T01:36:47.028Z,79.90
2018-09-09T01:39:14.826Z,79.50
2018-09-09T01:41:42.543Z,78.50
2018-09-09T01:44:10.285Z,77.60
2018-09-09T01:46:38.012Z,77.70
2018-09-09T01:49:06.057Z,79.20
2018-09-09T01:51:33.760Z,79.50
2018-09-09T01:54:01.493Z,80.80
2018-09-09T01:56:29.217Z,80.60
2018-09-09T01:58:56.957Z,80.90
2018-09-09T02:01:24.712Z,80.60
2018-09-09T02:03:52.453Z,82.60
2018-09-09T02:06:20.187Z,81.20
2018-09-09T02:08:47.961Z,80.60
2018-09-09T02:11:15.749Z,81.80
2018-09-09T02:13:43.510Z,82.50
2018-09-09T02:16:11.248Z,83.20
2018-09-09T02:18:38.988Z,83.20
2018-09-09T02:21:06.699Z,82.90
2018-09-09T02:23:34.473Z,83.50
2018-09-09T02:26:02.356Z,83.50
2018-09-09T02:28:30.071Z,84.70
2018-09-09T02:30:57.899Z,84.40
2018-09-09T02:33:25.603Z,84.50
2018-09-09T02:35:53.339Z,85.10
2018-09-09T02:38:21.071Z,85.10
2018-09-09T02:40:48.803Z,85.70
2018-09-09T02:43:16.517Z,84.40
2018-09-09T02:45:44.279Z,84.70
2018-09-09T02:48:11.982Z,84.50
2018-09-09T02:50:39.720Z,83.70
2018-09-09T02:53:07.477Z,84.50
2018-09-09T02:55:39.721Z,84.10
2018-09-09T02:58:07.509Z,84.70
2018-09-09T03:00:35.237Z,86.60
2018-09-09T03:03:02.944Z,86.10
2018-09-09T03:05:30.680Z,87.90
2018-09-09T03:07:58.389Z,86.80
2018-09-09T03:10:26.108Z,87.80
2018-09-09T03:12:53.847Z,89.30
2018-09-09T03:15:21.558Z,90.00
2018-09-09T03:17:49.288Z,89.70
2018-09-09T03:20:16.992Z,87.80
2018-09-09T03:22:44.724Z,89.30
2018-09-09T03:25:12.441Z,87.70
2018-09-09T03:27:40.136Z,87.70
2018-09-09T03:30:07.888Z,88.00
2018-09-09T03:32:35.611Z,88.50
2018-09-09T03:35:03.556Z,88.70
2018-09-09T03:37:31.252Z,89.60
2018-09-09T03:39:58.986Z,90.10
2018-09-09T03:42:26.684Z,90.20
2018-09-09T03:44:54.454Z,90.10
2018-09-09T03:47:22.206Z,90.00
2018-09-09T03:49:49.925Z,90.10
2018-09-09T03:52:17.645Z,90.40
2018-09-09T03:54:45.440Z,90.60
2018-09-09T03:57:13.141Z,91.20
2018-09-09T03:59:40.873Z,91.30
2018-09-09T04:02:08.661Z,90.90
2018-09-09T04:04:36.392Z,91.10
2018-09-09T04:07:04.345Z,91.60
2018-09-09T04:09:32.070Z,91.20
2018-09-09T04:11:59.799Z,91.30
2018-09-09T04:14:27.511Z,91.60
2018-09-09T04:16:55.245Z,91.50
2018-09-09T04:19:22.967Z,91.50
2018-09-09T04:21:51.599Z,91.10
2018-09-09T04:24:20.522Z,90.70
2018-09-09T04:26:48.320Z,91.70
2018-09-09T04:29:16.146Z,91.90
2018-09-09T04:31:43.912Z,91.60
2018-09-09T04:34:11.748Z,91.60
2018-09-09T04:36:39.471Z,91.70
2018-09-09T04:39:10.053Z,91.50
2018-09-09T04:41:37.935Z,91.50
2018-09-09T04:44:05.700Z,91.60
2018-09-09T04:46:33.434Z,92.40
2018-09-09T04:49:01.140Z,91.30
2018-09-09T04:51:28.864Z,91.90
2018-09-09T04:53:56.589Z,91.40
2018-09-09T04:56:24.311Z,90.80
2018-09-09T04:58:52.021Z,91.40
2018-09-09T05:01:19.926Z,91.20
2018-09-09T05:03:47.676Z,92.20
2018-09-09T05:06:15.403Z,92.20
2018-09-09T05:08:43.132Z,91.70
2018-09-09T05:11:10.883Z,92.20
2018-09-09T05:13:38.585Z,92.30
2018-09-09T05:16:06.332Z,92.80
2018-09-09T05:18:34.088Z,93.30
2018-09-09T05:21:01.783Z,92.60
2018-09-09T05:23:29.538Z,92.50
2018-09-09T05:25:57.268Z,92.00
2018-09-09T05:28:24.996Z,92.00
2018-09-09T05:30:52.695Z,91.60
2018-09-09T05:33:20.407Z,90.50
2018-09-09T05:35:48.157Z,90.20
2018-09-09T05:38:15.865Z,90.30
2018-09-09T05:40:43.621Z,90.50
2018-09-09T05:43:11.413Z,90.60
2018-09-09T05:45:39.153Z,90.20
2018-09-09T05:48:06.853Z,90.50
2018-09-09T05:50:34.573Z,90.80
2018-09-09T05:53:02.307Z,91.20
2018-09-09T05:55:30.013Z,90.50
2018-09-09T05:57:57.738Z,90.30
2018-09-09T06:00:25.500Z,90.40
2018-09-09T06:02:53.242Z,89.60
2018-09-09T06:05:20.993Z,88.00
2018-09-09T06:07:48.764Z,87.50
2018-09-09T06:10:16.500Z,86.00
2018-09-09T06:12:44.233Z,86.70
2018-09-09T06:15:11.964Z,85.30
2018-09-09T06:17:39.701Z,85.40
2018-09-09T06:20:07.428Z,85.60
2018-09-09T06:22:35.207Z,85.60
2018-09-09T06:25:02.934Z,85.30
2018-09-09T06:27:30.667Z,83.80
2018-09-09T06:29:58.408Z,83.30
2018-09-09T06:32:26.144Z,83.30
2018-09-09T06:34:53.851Z,82.80
2018-09-09T06:37:21.623Z,82.40
2018-09-09T06:39:49.357Z,81.50
2018-09-09T06:42:17.084Z,82.80
2018-09-09T06:44:44.811Z,81.00
2018-09-09T06:47:12.560Z,78.40
2018-09-09T06:49:40.309Z,76.60
2018-09-09T06:52:08.022Z,76.60
2018-09-09T06:54:35.795Z,75.70
2018-09-09T06:57:03.513Z,76.30
2018-09-09T06:59:31.272Z,76.40
2018-09-09T07:01:59.048Z,75.50
2018-09-09T07:04:26.813Z,75.10
2018-09-09T07:06:54.541Z,72.00
2018-09-09T07:09:22.360Z,70.00
2018-09-09T07:11:50.277Z,71.10
2018-09-09T07:14:17.897Z,69.60
2018-09-09T07:16:45.626Z,70.50
2018-09-09T07:19:13.442Z,69.60
2018-09-09T07:21:41.084Z,66.30
2018-09-09T07:24:08.818Z,64.70
2018-09-09T07:26:36.590Z,62.90
2018-09-09T07:29:04.320Z,65.80
2018-09-09T07:31:32.048Z,65.50
2018-09-09T07:33:59.769Z,64.10
2018-09-09T07:36:27.490Z,62.50
2018-09-09T07:38:55.213Z,62.00
2018-09-09T07:41:22.966Z,60.90
2018-09-09T07:43:50.672Z,59.10
2018-09-09T07:46:18.412Z,59.70
2018-09-09T07:48:46.192Z,59.20
2018-09-09T07:51:13.945Z,59.30
2018-09-09T07:53:41.696Z,57.50
2018-09-09T07:56:09.437Z,54.80
2018-09-09T07:58:37.160Z,54.30
2018-09-09T08:01:05.046Z,54.40
2018-09-09T08:03:32.757Z,56.30
2018-09-09T08:06:00.485Z,52.30
2018-09-09T08:08:28.177Z,50.00
2018-09-09T08:10:55.920Z,45.70
2018-09-09T08:13:24.438Z,46.30
2018-09-09T08:15:52.165Z,47.40
2018-09-09T08:18:19.935Z,46.80
2018-09-09T08:20:47.629Z,45.70
2018-09-09T08:23:15.390Z,43.80
2018-09-09T08:25:43.197Z,42.10
2018-09-09T08:28:10.900Z,43.20
2018-09-09T08:30:38.640Z,41.00
2018-09-09T08:33:06.350Z,39.40
2018-09-09T08:35:34.069Z,37.70
2018-09-09T08:38:01.818Z,39.20
2018-09-09T08:40:29.529Z,39.00
2018-09-09T08:42:57.252Z,38.30
2018-09-09T08:45:25.057Z,36.00
2018-09-09T08:47:52.755Z,38.20
2018-09-09T08:50:20.569Z,35.20
2018-09-09T08:52:48.306Z,33.90
2018-09-09T08:55:16.018Z,34.80
2018-09-09T08:57:43.796Z,35.20
2018-09-09T09:00:11.509Z,35.00
2018-09-09T09:02:39.227Z,35.00
2018-09-09T09:05:06.988Z,35.10
2018-09-09T09:07:34.810Z,35.10
2018-09-09T09:10:02.560Z,32.60
2018-09-09T09:12:30.257Z,29.90
2018-09-09T09:14:58.028Z,28.50
2018-09-09T09:17:25.725Z,30.30
2018-09-09T09:19:53.455Z,27.80
2018-09-09T09:22:21.179Z,26.10
2018-09-09T09:24:48.921Z,24.80
2018-09-09T09:27:16.639Z,24.20
2018-09-09T09:29:49.841Z,24.90
2018-09-09T09:32:21.839Z,23.20
2018-09-09T09:34:49.673Z,21.60
2018-09-09T09:37:17.803Z,21.80
2018-09-09T09:39:45.536Z,20.10
2018-09-09T09:42:13.305Z,19.90
2018-09-09T09:44:41.706Z,22.40
2018-09-09T09:47:09.445Z,22.80
2018-09-09T09:49:37.244Z,26.00
2018-09-09T09:52:04.988Z,24.90
2018-09-09T09:54:32.733Z,22.30
2018-09-09T09:57:00.490Z,19.60
2018-09-09T09:59:28.220Z,17.80
2018-09-09T10:01:55.976Z,17.90
2018-09-09T10:04:23.731Z,17.70
2018-09-09T10:06:51.589Z,18.50
2018-09-09T10:09:19.341Z,16.90
2018-09-09T10:11:47.132Z,15.90
2018-09-09T10:14:14.863Z,17.30
2018-09-09T10:16:42.621Z,17.50
2018-09-09T10:19:10.396Z,16.90
2018-09-09T10:21:38.102Z,16.90
2018-09-09T10:24:05.910Z,16.20
2018-09-09T10:26:33.693Z,16.40
2018-09-09T10:29:01.752Z,16.20
2018-09-09T10:31:29.484Z,16.30
2018-09-09T10:33:57.246Z,15.60
2018-09-09T10:36:25.010Z,16.60
2018-09-09T10:38:52.740Z,17.00
2018-09-09T10:41:20.511Z,17.90
2018-09-09T10:43:48.340Z,17.90
2018-09-09T10:46:16.203Z,19.00
2018-09-09T10:48:43.880Z,21.40
2018-09-09T10:51:11.704Z,22.80
2018-09-09T10:53:39.524Z,23.90
2018-09-09T10:56:07.319Z,21.90
2018-09-09T10:58:35.117Z,20.60
2018-09-09T11:01:02.977Z,19.30
2018-09-09T11:03:30.766Z,20.20
2018-09-09T11:05:58.542Z,17.70
2018-09-09T11:08:26.261Z,14.50
2018-09-09T11:10:54.070Z,15.00
2018-09-09T11:13:21.836Z,16.50
2018-09-09T11:15:49.565Z,18.10
2018-09-09T11:18:17.438Z,17.50
2018-09-09T11:20:45.194Z,17.70
2018-09-09T11:23:12.931Z,17.60
2018-09-09T11:25:40.697Z,18.00
2018-09-09T11:28:08.443Z,17.10
2018-09-09T11:30:36.193Z,18.40
2018-09-09T11:33:04.054Z,18.70
2018-09-09T11:35:31.805Z,17.90
2018-09-09T11:37:59.561Z,17.40
2018-09-09T11:40:27.345Z,16.90
2018-09-09T11:42:55.109Z,16.60
2018-09-09T11:45:22.894Z,14.80
2018-09-09T11:47:50.709Z,15.70
2018-09-09T11:50:18.489Z,16.60
2018-09-09T11:52:46.219Z,17.60
2018-09-09T11:55:14.064Z,18.80
2018-09-09T11:57:41.892Z,18.80
2018-09-09T12:00:09.704Z,18.80
2018-09-09T12:02:37.503Z,17.70
2018-09-09T12:05:05.329Z,17.50
2018-09-09T12:07:33.122Z,16.30
2018-09-09T12:10:00.881Z,16.40
2018-09-09T12:12:28.624Z,16.10
2018-09-09T12:14:57.361Z,17.30
2018-09-09T12:17:25.097Z,17.60
2018-09-09T12:19:52.812Z,17.80
2018-09-09T12:22:20.504Z,16.10
2018-09-09T12:24:48.503Z,15.60
2018-09-09T12:27:16.164Z,15.20
2018-09-09T12:29:43.883Z,15.20
2018-09-09T12:32:11.647Z,14.50
2018-09-09T12:34:39.357Z,15.30
2018-09-09T12:37:07.150Z,14.60
2018-09-09T12:39:34.990Z,15.30
2018-09-09T12:42:02.689Z,15.10
2018-09-09T12:44:36.121Z,16.40
2018-09-09T12:47:09.747Z,16.40
2018-09-09T12:49:37.517Z,16.30
2018-09-09T12:52:05.281Z,17.50
2018-09-09T12:54:33.004Z,17.60
2018-09-09T12:57:00.741Z,18.80
2018-09-09T12:59:28.529Z,18.90
2018-09-09T13:01:56.199Z,18.70
2018-09-09T13:04:23.967Z,18.40
2018-09-09T13:06:51.742Z,18.90
2018-09-09T13:09:19.513Z,19.70
2018-09-09T13:11:47.289Z,20.10
2018-09-09T13:14:14.978Z,20.90
2018-09-09T13:16:42.736Z,20.90
2018-09-09T13:19:10.464Z,21.30
2018-09-09T13:21:38.389Z,22.10
2018-09-09T13:24:06.133Z,23.50
2018-09-09T13:26:33.903Z,23.60
2018-09-09T13:29:01.633Z,23.20
2018-09-09T13:31:29.384Z,23.40
2018-09-09T13:33:57.640Z,23.30
2018-09-09T13:36:25.376Z,22.80
2018-09-09T13:38:53.264Z,21.90
2018-09-09T13:41:21.066Z,21.30
2018-09-09T13:43:49.716Z,19.90
2018-09-09T13:46:17.477Z,21.50
2018-09-09T13:48:45.248Z,21.70
2018-09-09T13:51:13.025Z,21.00
2018-09-09T13:53:40.793Z,20.70
2018-09-09T13:56:08.563Z,21.70
2018-09-09T13:58:36.341Z,20.90
2018-09-09T14:01:04.136Z,20.20
2018-09-09T14:03:31.956Z,19.40
2018-09-09T14:05:59.751Z,20.00
2018-09-09T14:08:27.812Z,20.20
2018-09-09T14:10:55.594Z,21.30
2018-09-09T14:13:23.362Z,21.00
2018-09-09T14:15:51.151Z,20.70
2018-09-09T14:18:18.914Z,20.90
2018-09-09T14:20:46.656Z,19.70
2018-09-09T14:23:14.455Z,19.40
2018-09-09T14:25:42.236Z,19.00
2018-09-09T14:28:10.658Z,20.40
2018-09-09T14:30:38.409Z,21.20
2018-09-09T14:33:06.147Z,21.20
2018-09-09T14:35:33.948Z,20.80
2018-09-09T14:38:01.700Z,20.30
2018-09-09T14:40:29.569Z,21.40
2018-09-09T14:42:57.247Z,21.70
2018-09-09T14:45:24.993Z,22.40
2018-09-09T14:47:52.760Z,23.00
2018-09-09T14:50:20.532Z,23.10
2018-09-09T14:52:48.301Z,23.70
2018-09-09T14:55:16.044Z,23.70
2018-09-09T14:57:43.776Z,24.10
2018-09-09T15:00:12.789Z,23.80
2018-09-09T15:02:40.542Z,23.20
2018-09-09T15:05:08.337Z,23.00
2018-09-09T15:07:36.100Z,23.80
2018-09-09T15:10:04.012Z,23.60
2018-09-09T15:12:31.801Z,23.90
2018-09-09T15:14:59.571Z,24.20
2018-09-09T15:17:27.371Z,23.90
2018-09-09T15:19:55.133Z,23.70
2018-09-09T15:22:22.971Z,23.90
2018-09-09T15:24:50.732Z,24.30
2018-09-09T15:27:18.516Z,24.90
2018-09-09T15:29:46.314Z,24.70
2018-09-09T15:32:14.088Z,25.00
2018-09-09T15:34:41.846Z,25.30
2018-09-09T15:37:09.656Z,25.60
2018-09-09T15:39:37.397Z,25.70
2018-09-09T15:42:04.857Z,24.20
2018-09-09T15:44:32.627Z,24.40
2018-09-09T15:47:00.553Z,23.90
2018-09-09T15:49:28.438Z,24.40
2018-09-09T15:51:56.303Z,25.30
2018-09-09T15:54:24.062Z,25.30
2018-09-09T15:56:51.829Z,25.30
2018-09-09T15:59:19.565Z,25.60
2018-09-09T16:01:47.351Z,25.70
2018-09-09T16:04:15.108Z,25.70
2018-09-09T16:06:42.898Z,25.60
2018-09-09T16:09:11.226Z,26.10
2018-09-09T16:11:39.155Z,26.90
2018-09-09T16:14:07.124Z,26.20
2018-09-09T16:16:34.883Z,25.60
2018-09-09T16:19:02.779Z,25.70
2018-09-09T16:21:30.516Z,25.90
2018-09-09T16:23:58.303Z,26.10
2018-09-09T16:26:26.147Z,26.10
2018-09-09T16:28:53.908Z,26.50
2018-09-09T16:31:21.716Z,26.40
2018-09-09T16:33:49.471Z,27.50
2018-09-09T16:36:17.237Z,26.40
2018-09-09T16:38:45.010Z,26.70
2018-09-09T16:41:12.772Z,26.80
2018-09-09T16:43:40.560Z,26.70
2018-09-09T16:46:08.329Z,26.80
2018-09-09T16:48:36.580Z,27.40
2018-09-09T16:51:04.424Z,27.70
2018-09-09T16:53:32.181Z,26.10
2018-09-09T16:56:00.006Z,25.80
2018-09-09T16:58:27.731Z,25.50
2018-09-09T17:00:55.517Z,24.50
2018-09-09T17:03:23.300Z,24.50
2018-09-09T17:05:51.012Z,25.30
2018-09-09T17:08:18.766Z,24.70
2018-09-09T17:10:46.465Z,25.10
2018-09-09T17:13:14.190Z,24.90
2018-09-09T17:15:41.956Z,24.80
2018-09-09T17:18:09.693Z,25.00
2018-09-09T17:20:37.442Z,25.40
2018-09-09T17:23:05.152Z,25.10
2018-09-09T17:25:32.888Z,25.40
2018-09-09T17:28:00.643Z,25.90
2018-09-09T17:30:28.372Z,26.30
2018-09-09T17:32:56.051Z,26.70
2018-09-09T17:35:23.757Z,27.10
2018-09-09T17:37:51.508Z,27.50
2018-09-09T17:40:19.217Z,28.10
2018-09-09T17:42:46.925Z,28.20
2018-09-09T17:45:14.631Z,28.70
2018-09-09T17:47:42.359Z,29.10
2018-09-09T17:50:10.057Z,30.30
2018-09-09T17:52:37.786Z,30.60
2018-09-09T17:55:05.652Z,29.50
2018-09-09T17:57:33.425Z,31.90
2018-09-09T18:00:01.189Z,32.70
2018-09-09T18:02:28.929Z,32.90
2018-09-09T18:04:56.620Z,33.60
2018-09-09T18:07:24.354Z,34.60
2018-09-09T18:09:52.089Z,35.20
2018-09-09T18:12:19.823Z,35.50
2018-09-09T18:14:47.593Z,35.40
2018-09-09T18:17:15.317Z,35.90
2018-09-09T18:19:43.065Z,36.40
2018-09-09T18:22:10.888Z,37.10
2018-09-09T18:24:38.646Z,37.20
2018-09-09T18:27:06.397Z,38.10
2018-09-09T18:29:34.246Z,36.40
2018-09-09T18:32:01.972Z,36.80
2018-09-09T18:34:29.707Z,38.50
2018-09-09T18:36:57.485Z,39.00
2018-09-09T18:39:25.242Z,39.60
2018-09-09T18:41:53.005Z,39.70
2018-09-09T18:44:20.754Z,39.90
2018-09-09T18:46:48.532Z,39.90
2018-09-09T18:49:16.273Z,40.60
2018-09-09T18:51:44.038Z,41.20
2018-09-09T18:54:11.875Z,41.00
2018-09-09T18:56:39.698Z,41.50
2018-09-09T18:59:07.453Z,42.30
2018-09-09T19:01:35.230Z,42.00
2018-09-09T19:04:03.042Z,42.30
2018-09-09T19:06:30.787Z,43.00
2018-09-09T19:08:58.632Z,42.90
2018-09-09T19:11:26.386Z,43.40
2018-09-09T19:13:54.222Z,44.20
2018-09-09T19:16:21.999Z,45.40
2018-09-09T19:18:49.760Z,45.20
2018-09-09T19:21:17.489Z,45.00
2018-09-09T19:23:45.257Z,45.10
2018-09-09T19:26:13.034Z,45.70
2018-09-09T19:28:40.788Z,47.10
2018-09-09T19:31:08.535Z,48.60
2018-09-09T19:33:36.334Z,48.20
2018-09-09T19:36:04.066Z,49.60
2018-09-09T19:38:31.828Z,49.30
2018-09-09T19:40:59.576Z,49.20
2018-09-09T19:43:27.443Z,49.30
2018-09-09T19:45:55.181Z,49.70
2018-09-09T19:48:23.184Z,50.80
2018-09-09T19:50:50.940Z,51.50
2018-09-09T19:53:18.706Z,51.20
2018-09-09T19:55:46.497Z,51.70
2018-09-09T19:58:14.349Z,51.90
2018-09-09T20:00:42.098Z,52.00
2018-09-09T20:03:09.881Z,52.40
2018-09-09T20:05:37.665Z,53.50
2018-09-09T20:08:05.425Z,54.00
2018-09-09T20:10:34.026Z,54.50
2018-09-09T20:13:01.812Z,54.70
2018-09-09T20:15:29.620Z,55.80
2018-09-09T20:17:57.361Z,56.30
2018-09-09T20:20:25.360Z,55.10
2018-09-09T20:22:53.118Z,56.50
2018-09-09T20:25:20.874Z,56.50
2018-09-09T20:27:48.641Z,56.60
2018-09-09T20:30:16.432Z,58.10
2018-09-09T20:32:44.223Z,58.70
2018-09-09T20:35:11.964Z,59.10
2018-09-09T20:37:40.057Z,59.30
2018-09-09T20:40:07.890Z,59.80
2018-09-09T20:42:35.655Z,59.50
2018-09-09T20:45:03.537Z,59.50
2018-09-09T20:47:31.316Z,59.40
2018-09-09T20:49:59.097Z,59.10
2018-09-09T20:52:26.853Z,59.40
2018-09-09T20:54:54.673Z,60.60
2018-09-09T20:57:22.418Z,61.70
2018-09-09T20:59:50.182Z,61.10
2018-09-09T21:02:17.915Z,61.50
2018-09-09T21:04:45.693Z,62.10
2018-09-09T21:07:13.456Z,61.90
2018-09-09T21:09:41.262Z,60.60
2018-09-09T21:12:09.001Z,62.70
2018-09-09T21:14:36.798Z,62.20
2018-09-09T21:17:04.569Z,62.50
2018-09-09T21:19:32.451Z,62.50
2018-09-09T21:22:00.217Z,61.00
2018-09-09T21:24:28.004Z,60.80
2018-09-09T21:26:55.796Z,60.60
2018-09-09T21:29:23.576Z,60.50
2018-09-09T21:31:51.399Z,61.00
2018-09-09T21:34:19.144Z,61.30
2018-09-09T21:36:47.011Z,61.40
2018-09-09T21:39:14.807Z,61.00
2018-09-09T21:41:42.593Z,60.60
2018-09-09T21:44:10.357Z,61.20
2018-09-09T21:46:38.163Z,62.00
2018-09-09T21:49:06.148Z,62.20
2018-09-09T21:51:33.982Z,62.60
2018-09-09T21:54:01.741Z,62.30
2018-09-09T21:56:29.511Z,62.20
2018-09-09T21:58:57.266Z,62.60
2018-09-09T22:01:30.708Z,63.00
2018-09-09T22:03:58.849Z,63.50
2018-09-09T22:06:27.327Z,63.00
2018-09-09T22:08:55.733Z,63.50
2018-09-09T22:11:23.867Z,64.00
2018-09-09T22:13:51.766Z,64.80
2018-09-09T22:16:19.564Z,66.10
2018-09-09T22:18:47.406Z,65.40
2018-09-09T22:21:15.244Z,65.90
2018-09-09T22:23:43.033Z,67.10
2018-09-09T22:26:10.792Z,66.10
2018-09-09T22:28:38.557Z,66.60
2018-09-09T22:31:06.333Z,67.50
2018-09-09T22:33:34.083Z,67.70
2018-09-09T22:36:01.864Z,68.80
2018-09-09T22:38:29.601Z,69.00
2018-09-09T22:40:57.381Z,71.00
2018-09-09T22:43:25.112Z,70.80
2018-09-09T22:45:57.694Z,72.70
2018-09-09T22:48:25.675Z,72.00
2018-09-09T22:50:53.461Z,72.60
2018-09-09T22:53:21.259Z,73.10
2018-09-09T22:55:49.045Z,73.50
2018-09-09T22:58:16.821Z,72.10
2018-09-09T23:00:44.600Z,72.30
2018-09-09T23:03:12.365Z,72.30
2018-09-09T23:05:40.139Z,71.50
2018-09-09T23:08:07.905Z,72.10
2018-09-09T23:10:35.725Z,72.00
2018-09-09T23:13:03.517Z,70.80
2018-09-09T23:15:31.388Z,72.10
2018-09-09T23:17:59.158Z,71.90
2018-09-09T23:20:26.941Z,71.30
2018-09-09T23:22:54.735Z,71.50
2018-09-09T23:25:22.835Z,70.90
2018-09-09T23:27:50.612Z,72.00
2018-09-09T23:30:18.366Z,72.20
2018-09-09T23:32:46.457Z,71.40
2018-09-09T23:35:14.196Z,70.60
2018-09-09T23:37:42.316Z,70.50
2018-09-09T23:40:10.058Z,70.90
2018-09-09T23:42:37.785Z,70.30
2018-09-09T23:45:05.708Z,69.90
2018-09-09T23:47:33.839Z,69.80
2018-09-09T23:50:01.584Z,70.00
2018-09-09T23:52:29.447Z,70.10
2018-09-09T23:54:57.176Z,70.10
2018-09-09T23:57:24.902Z,69.60
2018-09-09T23:59:52.671Z,70.50
